createdAt,value
2023-06-23T00:02:18.922Z,94312.80
2023-06-23T00:04:45.230Z,94316.00
2023-06-23T00:07:11.450Z,94309.00
2023-06-23T00:09:38.064Z,94304.00
2023-06-23T00:12:07.895Z,94304.20
2023-06-23T00:14:34.370Z,94308.00
2023-06-23T00:17:01.157Z,94307.60
2023-06-23T00:19:27.355Z,94314.00
2023-06-23T00:21:53.495Z,94318.00
2023-06-23T00:24:19.676Z,94317.40
2023-06-23T00:26:45.769Z,94316.40
2023-06-23T00:29:12.014Z,94315.40
2023-06-23T00:31:38.242Z,94315.00
2023-06-23T00:34:04.487Z,94319.00
2023-06-23T00:36:31.045Z,94313.80
2023-06-23T00:38:57.275Z,94310.20
2023-06-23T00:41:23.413Z,94307.40
2023-06-23T00:43:50.392Z,94310.00
2023-06-23T00:46:16.731Z,94314.00
2023-06-23T00:48:43.106Z,94312.60
2023-06-23T00:51:09.697Z,94311.20
2023-06-23T00:53:35.959Z,94304.00
2023-06-23T00:56:02.154Z,94298.80
2023-06-23T00:58:28.323Z,94297.40
2023-06-23T01:00:54.668Z,94300.00
2023-06-23T01:03:20.969Z,94301.60
2023-06-23T01:05:47.332Z,94291.60
2023-06-23T01:08:13.584Z,94284.00
2023-06-23T01:10:39.752Z,94284.80
2023-06-23T01:13:05.843Z,94277.80
2023-06-23T01:15:32.297Z,94273.80
2023-06-23T01:17:58.717Z,94266.20
2023-06-23T01:20:25.507Z,94254.20
2023-06-23T01:22:51.690Z,94251.60
2023-06-23T01:25:17.871Z,94248.00
2023-06-23T01:27:43.970Z,94247.20
2023-06-23T01:30:10.305Z,94241.20
2023-06-23T01:32:36.441Z,94233.20
2023-06-23T01:35:03.635Z,94228.20
2023-06-23T01:37:29.852Z,94237.80
2023-06-23T01:39:56.069Z,94249.20
2023-06-23T01:42:22.360Z,94254.60
2023-06-23T01:44:48.880Z,94256.40
2023-06-23T01:47:14.980Z,94257.80
2023-06-23T01:49:41.089Z,94265.20
2023-06-23T01:52:07.617Z,94272.00
2023-06-23T01:54:33.764Z,94278.00
2023-06-23T01:57:00.091Z,94280.00
2023-06-23T01:59:26.319Z,94282.00
2023-06-23T02:01:52.570Z,94284.20
2023-06-23T02:04:19.110Z,94278.60
2023-06-23T02:06:45.460Z,94282.00
2023-06-23T02:09:11.644Z,94279.60
2023-06-23T02:11:37.833Z,94272.00
2023-06-23T02:14:04.129Z,94266.60
2023-06-23T02:16:30.235Z,94259.80
2023-06-23T02:18:57.067Z,94247.00
2023-06-23T02:21:23.318Z,94237.20
2023-06-23T02:23:49.506Z,94233.80
2023-06-23T02:26:15.708Z,94237.60
2023-06-23T02:28:41.917Z,94231.20
2023-06-23T02:31:08.947Z,94225.80
2023-06-23T02:33:35.177Z,94222.80
2023-06-23T02:36:01.423Z,94227.40
2023-06-23T02:38:27.610Z,94226.40
2023-06-23T02:40:53.751Z,94211.80
2023-06-23T02:43:20.920Z,94211.40
2023-06-23T02:45:47.126Z,94207.80
2023-06-23T02:48:13.262Z,94200.20
2023-06-23T02:50:39.468Z,94202.60
2023-06-23T02:53:06.953Z,94201.00
2023-06-23T02:55:33.406Z,94199.20
2023-06-23T02:58:00.039Z,94208.80
2023-06-23T03:00:27.029Z,94209.00
2023-06-23T03:02:53.319Z,94205.80
2023-06-23T03:05:21.748Z,94211.40
2023-06-23T03:07:47.969Z,94206.60
2023-06-23T03:10:14.463Z,94198.80
2023-06-23T03:12:40.851Z,94201.60
2023-06-23T03:15:07.047Z,94206.40
2023-06-23T03:17:33.254Z,94207.80
2023-06-23T03:19:59.489Z,94206.60
2023-06-23T03:22:25.718Z,94209.20
2023-06-23T03:24:52.057Z,94211.40
2023-06-23T03:27:18.310Z,94220.60
2023-06-23T03:29:44.472Z,94219.60
2023-06-23T03:32:10.832Z,94222.20
2023-06-23T03:34:37.095Z,94228.00
2023-06-23T03:37:03.193Z,94226.80
2023-06-23T03:39:29.439Z,94229.60
2023-06-23T03:41:57.332Z,94236.20
2023-06-23T03:44:23.730Z,94243.80
2023-06-23T03:46:50.177Z,94244.40
2023-06-23T03:49:16.582Z,94251.00
2023-06-23T03:51:42.783Z,94254.20
2023-06-23T03:54:09.195Z,94258.60
2023-06-23T03:56:35.466Z,94261.00
2023-06-23T03:59:03.026Z,94263.40
2023-06-23T04:01:29.277Z,94268.20
2023-06-23T04:03:55.569Z,94257.20
2023-06-23T04:06:22.177Z,94247.00
2023-06-23T04:08:48.531Z,94247.40
2023-06-23T04:11:14.662Z,94241.40
2023-06-23T04:13:40.875Z,94235.20
2023-06-23T04:16:07.173Z,94235.40
2023-06-23T04:18:33.327Z,94226.20
2023-06-23T04:20:59.476Z,94229.20
2023-06-23T04:23:25.742Z,94225.80
2023-06-23T04:25:52.077Z,94226.60
2023-06-23T04:28:18.226Z,94213.80
2023-06-23T04:30:44.336Z,94214.20
2023-06-23T04:33:10.655Z,94208.80
2023-06-23T04:35:36.788Z,94208.60
2023-06-23T04:38:03.120Z,94211.40
2023-06-23T04:40:29.376Z,94209.00
2023-06-23T04:42:55.666Z,94210.00
2023-06-23T04:45:21.885Z,94215.40
2023-06-23T04:47:48.415Z,94217.80
2023-06-23T04:50:14.756Z,94213.00
2023-06-23T04:52:40.886Z,94206.40
2023-06-23T04:55:07.155Z,94209.80
2023-06-23T04:57:33.296Z,94218.80
2023-06-23T04:59:59.497Z,94218.80
2023-06-23T05:02:25.936Z,94222.40
2023-06-23T05:04:55.486Z,94228.20
2023-06-23T05:07:22.945Z,94221.20
2023-06-23T05:09:49.215Z,94214.60
2023-06-23T05:12:15.527Z,94212.20
2023-06-23T05:14:41.777Z,94220.20
2023-06-23T05:17:09.067Z,94217.60
2023-06-23T05:19:36.431Z,94210.00
2023-06-23T05:22:02.608Z,94209.40
2023-06-23T05:24:31.240Z,94218.40
2023-06-23T05:27:00.010Z,94223.80
2023-06-23T05:29:26.172Z,94225.60
2023-06-23T05:31:52.372Z,94237.60
2023-06-23T05:34:18.694Z,94236.60
2023-06-23T05:36:45.417Z,94232.40
2023-06-23T05:39:12.417Z,94220.20
2023-06-23T05:41:38.597Z,94214.20
2023-06-23T05:44:04.772Z,94212.20
2023-06-23T05:46:31.050Z,94218.00
2023-06-23T05:48:57.328Z,94212.80
2023-06-23T05:51:23.516Z,94211.40
2023-06-23T05:53:49.786Z,94198.00
2023-06-23T05:56:16.192Z,94195.80
2023-06-23T05:58:42.389Z,94201.20
2023-06-23T06:01:08.663Z,94198.40
2023-06-23T06:03:35.006Z,94194.40
2023-06-23T06:06:01.425Z,94189.60
2023-06-23T06:08:27.690Z,94189.80
2023-06-23T06:10:53.824Z,94189.00
2023-06-23T06:13:19.970Z,94193.80
2023-06-23T06:15:46.477Z,94192.60
2023-06-23T06:18:15.389Z,94196.40
2023-06-23T06:20:42.070Z,94196.80
2023-06-23T06:23:24.057Z,94189.00
2023-06-23T06:25:51.276Z,94185.60
2023-06-23T06:28:17.537Z,94188.40
2023-06-23T06:30:43.809Z,94197.60
2023-06-23T06:33:09.960Z,94201.20
2023-06-23T06:35:36.336Z,94205.40
2023-06-23T06:38:02.470Z,94205.80
2023-06-23T06:40:28.605Z,94206.60
2023-06-23T06:42:54.816Z,94203.40
2023-06-23T06:45:20.990Z,94194.20
2023-06-23T06:47:47.368Z,94190.80
2023-06-23T06:50:13.576Z,94192.60
2023-06-23T06:52:45.588Z,94196.60
2023-06-23T06:55:15.226Z,94200.00
2023-06-23T06:57:41.520Z,94200.20
2023-06-23T07:00:10.162Z,94202.00
2023-06-23T07:02:36.524Z,94196.20
2023-06-23T07:05:02.953Z,94202.00
2023-06-23T07:07:29.287Z,94211.20
2023-06-23T07:09:55.628Z,94209.80
2023-06-23T07:12:23.581Z,94211.40
2023-06-23T07:14:49.778Z,94206.00
2023-06-23T07:17:15.938Z,94199.80
2023-06-23T07:19:42.060Z,94198.60
2023-06-23T07:22:08.865Z,94204.00
2023-06-23T07:24:35.015Z,94195.80
2023-06-23T07:27:01.140Z,94188.20
2023-06-23T07:29:27.450Z,94183.40
2023-06-23T07:31:53.728Z,94177.80
2023-06-23T07:34:19.941Z,94178.00
2023-06-23T07:36:46.562Z,94193.40
2023-06-23T07:39:12.800Z,94199.40
2023-06-23T07:41:38.974Z,94203.20
2023-06-23T07:44:05.153Z,94201.60
2023-06-23T07:46:31.572Z,94205.80
2023-06-23T07:48:58.019Z,94210.80
2023-06-23T07:51:24.126Z,94209.00
2023-06-23T07:54:05.410Z,94212.00
2023-06-23T07:56:32.662Z,94215.20
2023-06-23T07:58:58.828Z,94217.40
2023-06-23T08:01:25.006Z,94214.60
2023-06-23T08:03:51.363Z,94216.40
2023-06-23T08:06:23.815Z,94214.00
2023-06-23T08:08:49.975Z,94214.60
2023-06-23T08:11:16.340Z,94202.80
2023-06-23T08:13:42.581Z,94201.60
2023-06-23T08:16:08.796Z,94201.60
2023-06-23T08:18:34.990Z,94201.00
2023-06-23T08:21:01.262Z,94203.40
2023-06-23T08:23:27.541Z,94202.40
2023-06-23T08:25:53.701Z,94205.40
2023-06-23T08:28:20.037Z,94211.00
2023-06-23T08:30:46.175Z,94211.80
2023-06-23T08:33:12.654Z,94210.60
2023-06-23T08:35:39.007Z,94206.20
2023-06-23T08:38:05.304Z,94205.60
2023-06-23T08:40:31.627Z,94203.80
2023-06-23T08:42:58.419Z,94203.80
2023-06-23T08:45:24.983Z,94196.60
2023-06-23T08:47:52.148Z,94199.60
2023-06-23T08:50:18.763Z,94192.60
2023-06-23T08:52:44.904Z,94197.60
2023-06-23T08:55:11.044Z,94201.80
2023-06-23T08:57:39.372Z,94205.60
2023-06-23T09:00:05.833Z,94205.60
2023-06-23T09:02:32.191Z,94211.00
2023-06-23T09:04:58.444Z,94204.40
2023-06-23T09:07:25.470Z,94196.80
2023-06-23T09:09:51.584Z,94199.80
2023-06-23T09:12:21.091Z,94205.60
2023-06-23T09:14:47.334Z,94208.40
2023-06-23T09:17:13.732Z,94204.60
2023-06-23T09:19:40.467Z,94201.80
2023-06-23T09:22:09.339Z,94208.80
2023-06-23T09:24:35.626Z,94207.60
2023-06-23T09:27:01.791Z,94202.40
2023-06-23T09:29:28.027Z,94201.40
2023-06-23T09:31:55.240Z,94199.20
2023-06-23T09:34:22.098Z,94204.40
2023-06-23T09:36:48.229Z,94205.20
2023-06-23T09:39:14.876Z,94208.20
2023-06-23T09:41:51.666Z,94205.40
2023-06-23T09:44:18.643Z,94210.40
2023-06-23T09:46:44.834Z,94206.80
2023-06-23T09:49:11.085Z,94209.60
2023-06-23T09:51:37.254Z,94203.00
2023-06-23T09:54:03.612Z,94200.80
2023-06-23T09:56:29.789Z,94194.80
2023-06-23T09:58:55.913Z,94191.20
2023-06-23T10:01:23.239Z,94190.80
2023-06-23T10:03:49.666Z,94191.80
2023-06-23T10:06:15.871Z,94187.20
2023-06-23T10:08:41.998Z,94192.20
2023-06-23T10:11:08.186Z,94192.00
2023-06-23T10:13:34.574Z,94191.60
2023-06-23T10:16:00.746Z,94188.40
2023-06-23T10:18:26.862Z,94184.80
2023-06-23T10:20:52.973Z,94195.20
2023-06-23T10:23:19.157Z,94199.80
2023-06-23T10:25:48.296Z,94189.60
2023-06-23T10:28:14.519Z,94182.60
2023-06-23T10:30:41.343Z,94179.20
2023-06-23T10:33:07.521Z,94167.60
2023-06-23T10:35:33.939Z,94160.80
2023-06-23T10:38:00.436Z,94158.00
2023-06-23T10:40:26.778Z,94161.80
2023-06-23T10:42:52.918Z,94167.00
2023-06-23T10:45:19.038Z,94156.80
2023-06-23T10:47:45.449Z,94150.20
2023-06-23T10:50:11.749Z,94155.00
2023-06-23T10:52:38.187Z,94146.20
2023-06-23T10:55:04.301Z,94140.60
2023-06-23T10:57:30.513Z,94143.40
2023-06-23T10:59:56.677Z,94151.80
2023-06-23T11:02:23.537Z,94149.40
2023-06-23T11:04:49.770Z,94149.00
2023-06-23T11:07:16.138Z,94159.20
2023-06-23T11:09:45.430Z,94156.40
2023-06-23T11:12:12.391Z,94151.40
2023-06-23T11:14:38.559Z,94144.80
2023-06-23T11:17:04.717Z,94144.80
2023-06-23T11:19:31.079Z,94141.80
2023-06-23T11:21:57.518Z,94140.80
2023-06-23T11:24:23.641Z,94146.00
2023-06-23T11:26:49.942Z,94149.60
2023-06-23T11:29:16.144Z,94154.40
2023-06-23T11:31:42.277Z,94151.20
2023-06-23T11:34:08.454Z,94148.80
2023-06-23T11:36:34.596Z,94143.80
2023-06-23T11:39:03.977Z,94152.00
2023-06-23T11:41:33.307Z,94160.00
2023-06-23T11:44:00.921Z,94167.60
2023-06-23T11:46:27.111Z,94183.20
2023-06-23T11:48:54.138Z,94199.40
2023-06-23T11:51:21.782Z,94217.60
2023-06-23T11:53:47.959Z,94226.00
2023-06-23T11:56:14.246Z,94214.40
2023-06-23T11:58:40.403Z,94204.40
2023-06-23T12:01:06.730Z,94184.60
2023-06-23T12:03:33.440Z,94175.60
2023-06-23T12:06:02.662Z,94152.00
2023-06-23T12:08:29.736Z,94132.80
2023-06-23T12:10:57.297Z,94125.00
2023-06-23T12:13:23.426Z,94116.20
2023-06-23T12:15:50.453Z,94135.80
2023-06-23T12:18:17.521Z,94154.20
2023-06-23T12:20:43.924Z,94156.40
2023-06-23T12:23:14.369Z,94137.60
2023-06-23T12:25:40.513Z,94144.80
2023-06-23T12:28:06.711Z,94171.40
2023-06-23T12:30:32.946Z,94172.00
2023-06-23T12:32:59.295Z,94171.80
2023-06-23T12:35:26.099Z,94187.20
2023-06-23T12:37:52.473Z,94212.80
2023-06-23T12:40:18.781Z,94228.60
2023-06-23T12:42:46.958Z,94234.40
2023-06-23T12:45:14.455Z,94234.00
2023-06-23T12:47:40.591Z,94240.60
2023-06-23T12:50:11.621Z,94240.40
2023-06-23T12:52:38.826Z,94234.00
2023-06-23T12:55:05.621Z,94232.20
2023-06-23T12:57:31.795Z,94242.60
2023-06-23T12:59:57.918Z,94245.00
2023-06-23T13:02:24.042Z,94241.00
2023-06-23T13:04:50.223Z,94244.20
2023-06-23T13:07:16.360Z,94254.60
2023-06-23T13:09:42.544Z,94271.00
2023-06-23T13:12:08.824Z,94276.80
2023-06-23T13:14:34.949Z,94263.80
2023-06-23T13:17:01.570Z,94241.60
2023-06-23T13:19:27.792Z,94252.60
2023-06-23T13:21:53.890Z,94273.60
2023-06-23T13:24:20.081Z,94299.40
2023-06-23T13:26:48.492Z,94303.40
2023-06-23T13:29:15.918Z,94292.20
2023-06-23T13:31:43.052Z,94288.80
2023-06-23T13:34:09.220Z,94279.40
2023-06-23T13:36:36.654Z,94249.40
2023-06-23T13:39:03.644Z,94247.20
2023-06-23T13:41:29.926Z,94279.80
2023-06-23T13:43:56.494Z,94291.80
2023-06-23T13:46:22.678Z,94277.80
2023-06-23T13:48:48.955Z,94269.40
2023-06-23T13:51:15.035Z,94269.00
2023-06-23T13:53:41.136Z,94263.80
2023-06-23T13:56:07.455Z,94278.80
2023-06-23T13:58:33.871Z,94290.80
2023-06-23T14:01:00.065Z,94288.20
2023-06-23T14:03:26.620Z,94270.60
2023-06-23T14:05:55.280Z,94271.60
2023-06-23T14:08:21.953Z,94279.00
2023-06-23T14:10:48.355Z,94289.80
2023-06-23T14:13:14.929Z,94288.20
2023-06-23T14:15:41.249Z,94281.80
2023-06-23T14:18:07.753Z,94283.20
2023-06-23T14:20:33.897Z,94289.60
2023-06-23T14:23:00.444Z,94296.20
2023-06-23T14:25:26.611Z,94289.80
2023-06-23T14:27:52.761Z,94299.40
2023-06-23T14:30:19.680Z,94293.80
2023-06-23T14:32:49.244Z,94264.00
2023-06-23T14:35:15.450Z,94248.00
2023-06-23T14:37:41.574Z,94255.60
2023-06-23T14:40:09.583Z,94259.20
2023-06-23T14:42:35.826Z,94260.60
2023-06-23T14:45:02.060Z,94255.80
2023-06-23T14:47:28.497Z,94253.00
2023-06-23T14:49:56.505Z,94267.80
2023-06-23T14:52:22.658Z,94286.80
2023-06-23T14:54:48.890Z,94291.40
2023-06-23T14:57:14.978Z,94286.20
2023-06-23T14:59:41.217Z,94284.00
2023-06-23T15:02:07.549Z,94280.40
2023-06-23T15:04:33.853Z,94280.40
2023-06-23T15:07:00.188Z,94270.40
2023-06-23T15:09:27.529Z,94273.20
2023-06-23T15:11:53.661Z,94288.60
2023-06-23T15:14:19.819Z,94301.00
2023-06-23T15:16:46.036Z,94315.60
2023-06-23T15:19:12.350Z,94325.40
2023-06-23T15:21:38.512Z,94321.60
2023-06-23T15:24:04.726Z,94326.60
2023-06-23T15:26:30.939Z,94331.40
2023-06-23T15:28:57.052Z,94326.00
2023-06-23T15:31:23.817Z,94323.80
2023-06-23T15:33:50.198Z,94327.20
2023-06-23T15:36:16.272Z,94324.20
2023-06-23T15:38:42.459Z,94320.60
2023-06-23T15:41:08.779Z,94329.20
2023-06-23T15:43:34.875Z,94330.60
2023-06-23T15:46:01.222Z,94323.00
2023-06-23T15:48:27.469Z,94318.80
2023-06-23T15:50:55.510Z,94321.60
2023-06-23T15:53:23.474Z,94324.60
2023-06-23T15:55:49.695Z,94324.80
2023-06-23T15:58:15.802Z,94317.40
2023-06-23T16:00:42.275Z,94311.20
2023-06-23T16:03:08.523Z,94315.20
2023-06-23T16:05:35.343Z,94332.00
2023-06-23T16:08:01.726Z,94348.60
2023-06-23T16:10:27.917Z,94342.00
2023-06-23T16:12:54.018Z,94324.40
2023-06-23T16:15:20.280Z,94293.80
2023-06-23T16:17:46.800Z,94276.80
2023-06-23T16:20:13.133Z,94279.60
2023-06-23T16:22:39.330Z,94290.80
2023-06-23T16:25:05.723Z,94290.80
2023-06-23T16:27:32.375Z,94284.60
2023-06-23T16:29:58.797Z,94277.40
2023-06-23T16:32:26.176Z,94260.80
2023-06-23T16:34:52.393Z,94241.40
2023-06-23T16:37:19.393Z,94224.00
2023-06-23T16:39:45.640Z,94204.40
2023-06-23T16:42:11.783Z,94199.40
2023-06-23T16:44:38.397Z,94198.60
2023-06-23T16:47:04.618Z,94210.00
2023-06-23T16:49:30.781Z,94226.00
2023-06-23T16:51:57.036Z,94239.20
2023-06-23T16:54:23.291Z,94252.60
2023-06-23T16:56:49.426Z,94260.60
2023-06-23T16:59:15.578Z,94268.60
2023-06-23T17:01:41.697Z,94285.00
2023-06-23T17:04:08.157Z,94288.40
2023-06-23T17:06:34.602Z,94285.00
2023-06-23T17:09:00.900Z,94288.20
2023-06-23T17:11:28.240Z,94305.80
2023-06-23T17:13:54.389Z,94318.40
2023-06-23T17:16:21.086Z,94329.80
2023-06-23T17:18:47.347Z,94338.20
2023-06-23T17:21:13.632Z,94336.40
2023-06-23T17:23:39.781Z,94324.20
2023-06-23T17:26:06.004Z,94313.20
2023-06-23T17:28:32.242Z,94304.00
2023-06-23T17:30:58.437Z,94303.60
2023-06-23T17:33:24.653Z,94295.00
2023-06-23T17:35:50.811Z,94286.60
2023-06-23T17:38:16.968Z,94289.40
2023-06-23T17:40:43.591Z,94302.80
2023-06-23T17:43:09.762Z,94306.40
2023-06-23T17:45:36.240Z,94313.40
2023-06-23T17:48:03.085Z,94342.80
2023-06-23T17:50:29.353Z,94370.80
2023-06-23T17:52:55.476Z,94398.40
2023-06-23T17:55:21.761Z,94394.40
2023-06-23T17:57:47.971Z,94407.20
2023-06-23T18:00:14.125Z,94402.60
2023-06-23T18:02:40.334Z,94396.00
2023-06-23T18:05:06.984Z,94382.00
2023-06-23T18:07:33.220Z,94361.00
2023-06-23T18:09:59.463Z,94355.60
2023-06-23T18:12:25.830Z,94375.80
2023-06-23T18:14:51.950Z,94416.60
2023-06-23T18:17:18.031Z,94427.80
2023-06-23T18:19:44.285Z,94415.20
2023-06-23T18:22:10.611Z,94412.00
2023-06-23T18:24:36.989Z,94403.40
2023-06-23T18:27:03.144Z,94410.80
2023-06-23T18:29:29.278Z,94407.80
2023-06-23T18:32:19.055Z,94401.60
2023-06-23T18:34:45.304Z,94405.20
2023-06-23T18:37:11.473Z,94402.80
2023-06-23T18:39:37.666Z,94396.80
2023-06-23T18:42:03.943Z,94386.20
2023-06-23T18:44:30.241Z,94389.60
2023-06-23T18:46:56.493Z,94387.40
2023-06-23T18:49:23.065Z,94380.60
2023-06-23T18:51:49.198Z,94379.60
2023-06-23T18:54:15.376Z,94383.60
2023-06-23T18:56:41.560Z,94381.20
2023-06-23T18:59:07.735Z,94381.20
2023-06-23T19:01:33.920Z,94382.00
2023-06-23T19:04:00.526Z,94380.80
2023-06-23T19:06:26.750Z,94371.60
2023-06-23T19:08:54.261Z,94375.80
2023-06-23T19:11:20.353Z,94370.60
2023-06-23T19:13:46.570Z,94375.00
2023-06-23T19:16:12.807Z,94372.80
2023-06-23T19:18:38.948Z,94369.20
2023-06-23T19:21:05.286Z,94369.60
2023-06-23T19:23:31.609Z,94377.00
2023-06-23T19:25:57.927Z,94382.80
2023-06-23T19:28:24.025Z,94369.80
2023-06-23T19:30:50.188Z,94364.40
2023-06-23T19:33:16.329Z,94368.60
2023-06-23T19:35:42.530Z,94381.00
2023-06-23T19:38:08.782Z,94388.00
2023-06-23T19:40:35.077Z,94389.40
2023-06-23T19:43:01.458Z,94392.80
2023-06-23T19:45:28.048Z,94394.40
2023-06-23T19:47:54.366Z,94403.40
2023-06-23T19:50:20.904Z,94415.40
2023-06-23T19:52:47.153Z,94420.20
2023-06-23T19:55:13.435Z,94421.40
2023-06-23T19:57:39.670Z,94420.00
2023-06-23T20:00:06.382Z,94415.20
2023-06-23T20:02:32.595Z,94427.60
2023-06-23T20:04:58.757Z,94423.00
2023-06-23T20:07:25.085Z,94419.40
2023-06-23T20:09:51.341Z,94420.00
2023-06-23T20:12:17.463Z,94425.60
2023-06-23T20:14:43.678Z,94429.80
2023-06-23T20:17:09.862Z,94435.20
2023-06-23T20:19:35.974Z,94443.80
2023-06-23T20:22:02.183Z,94448.80
2023-06-23T20:24:28.473Z,94441.60
2023-06-23T20:26:54.576Z,94445.00
2023-06-23T20:29:20.770Z,94448.20
2023-06-23T20:31:46.901Z,94444.60
2023-06-23T20:34:13.004Z,94444.60
2023-06-23T20:36:39.199Z,94450.20
2023-06-23T20:39:05.766Z,94448.40
2023-06-23T20:41:31.909Z,94449.00
2023-06-23T20:43:58.111Z,94442.00
2023-06-23T20:46:24.275Z,94442.20
2023-06-23T20:48:50.426Z,94433.00
2023-06-23T20:51:16.761Z,94433.20
2023-06-23T20:53:44.237Z,94434.60
2023-06-23T20:56:10.689Z,94438.80
2023-06-23T20:58:37.005Z,94462.60
2023-06-23T21:01:03.145Z,94481.00
2023-06-23T21:03:29.552Z,94464.60
2023-06-23T21:05:55.839Z,94462.60
2023-06-23T21:08:21.945Z,94454.80
2023-06-23T21:10:48.216Z,94447.60
2023-06-23T21:13:14.385Z,94457.40
2023-06-23T21:15:40.603Z,94459.60
2023-06-23T21:18:07.438Z,94461.80
2023-06-23T21:20:34.120Z,94461.40
2023-06-23T21:23:00.520Z,94454.80
2023-06-23T21:25:26.861Z,94463.80
2023-06-23T21:27:53.057Z,94475.60
2023-06-23T21:30:19.378Z,94483.40
2023-06-23T21:32:45.565Z,94481.80
2023-06-23T21:35:12.529Z,94489.00
2023-06-23T21:37:38.635Z,94484.80
2023-06-23T21:40:04.870Z,94486.60
2023-06-23T21:42:31.125Z,94483.60
2023-06-23T21:44:57.250Z,94482.40
2023-06-23T21:47:23.405Z,94479.80
2023-06-23T21:49:49.652Z,94488.20
2023-06-23T21:52:15.763Z,94495.60
2023-06-23T21:54:41.954Z,94489.40
2023-06-23T21:57:08.135Z,94478.00
2023-06-23T21:59:34.211Z,94475.20
2023-06-23T22:02:01.654Z,94470.40
2023-06-23T22:04:27.944Z,94469.80
2023-06-23T22:06:54.165Z,94471.80
2023-06-23T22:09:20.389Z,94472.00
2023-06-23T22:11:46.561Z,94475.40
2023-06-23T22:14:12.692Z,94474.00
2023-06-23T22:16:38.870Z,94475.40
2023-06-23T22:19:05.148Z,94485.80
2023-06-23T22:21:31.389Z,94485.80
2023-06-23T22:23:57.498Z,94485.40
2023-06-23T22:26:23.850Z,94483.40
2023-06-23T22:28:50.063Z,94475.40
2023-06-23T22:31:16.331Z,94480.60
2023-06-23T22:33:42.613Z,94478.60
2023-06-23T22:36:08.781Z,94481.20
2023-06-23T22:38:34.997Z,94482.00
2023-06-23T22:41:01.145Z,94484.40
2023-06-23T22:43:27.287Z,94490.60
2023-06-23T22:45:53.495Z,94501.60
2023-06-23T22:48:19.823Z,94508.80
2023-06-23T22:50:49.093Z,94511.80
2023-06-23T22:53:15.388Z,94512.40
2023-06-23T22:55:41.705Z,94515.40
2023-06-23T22:58:07.966Z,94519.00
2023-06-23T23:00:34.301Z,94516.80
2023-06-23T23:03:00.883Z,94514.40
2023-06-23T23:05:27.200Z,94515.20
2023-06-23T23:07:53.619Z,94511.60
2023-06-23T23:10:19.770Z,94512.80
2023-06-23T23:12:45.955Z,94505.60
2023-06-23T23:15:12.086Z,94504.60
2023-06-23T23:17:38.547Z,94505.00
2023-06-23T23:20:04.780Z,94511.40
2023-06-23T23:22:31.120Z,94515.00
2023-06-23T23:24:58.762Z,94516.00
2023-06-23T23:27:25.190Z,94510.40
2023-06-23T23:29:54.125Z,94513.40
2023-06-23T23:32:21.893Z,94511.60
2023-06-23T23:34:51.338Z,94513.80
2023-06-23T23:37:17.480Z,94510.60
2023-06-23T23:39:43.614Z,94509.20
2023-06-23T23:42:09.720Z,94504.20
2023-06-23T23:44:35.866Z,94504.00
2023-06-23T23:47:02.075Z,94502.20
2023-06-23T23:49:28.280Z,94502.80
2023-06-23T23:51:54.536Z,94495.60
2023-06-23T23:54:20.742Z,94490.60
2023-06-23T23:56:46.888Z,94488.60
2023-06-23T23:59:13.112Z,94486.20
